Time;durP1;ratioP1;P1;durP2;ratioP2;P2;SDS_P1;SDS_P2;PMS_P1;PMS_P2;Temp;Humidity;BMP_temperature;BMP_pressure;BME280_temperature;BME280_humidity;BME280_pressure;Samples;Min_cycle;Max_cycle;Signal;HPM_P1;HPM_P2
2022/06/12 00:01:15;;;;;;;28.58;17.77;;;18.00;99.90;;;;;;5041817;28;20050;-75
2022/06/12 00:03:43;;;;;;;26.25;16.15;;;18.00;99.90;;;;;;5036706;28;20049;-75
2022/06/12 00:06:11;;;;;;;28.88;17.10;;;18.00;99.90;;;;;;5036104;28;20103;-75
2022/06/12 00:08:40;;;;;;;22.83;16.17;;;18.00;99.90;;;;;;5034482;28;20099;-75
2022/06/12 00:11:10;;;;;;;23.00;14.23;;;18.00;99.90;;;;;;5049885;28;20107;-75
2022/06/12 00:13:45;;;;;;;18.27;14.07;;;17.90;99.90;;;;;;5034295;28;20123;-75
2022/06/12 00:16:13;;;;;;;19.40;13.23;;;17.90;99.90;;;;;;5047987;28;20044;-75
2022/06/12 00:18:42;;;;;;;27.75;13.85;;;17.90;99.90;;;;;;5054491;28;20045;-75
2022/06/12 00:21:14;;;;;;;20.98;12.95;;;17.80;99.90;;;;;;5056084;28;20472;-75
2022/06/12 00:23:45;;;;;;;17.75;13.57;;;17.80;99.90;;;;;;5083594;23;20048;-75
2022/06/12 00:26:15;;;;;;;17.90;12.25;;;17.80;99.90;;;;;;5055579;28;20086;-75
2022/06/12 00:28:44;;;;;;;19.85;12.50;;;17.90;99.90;;;;;;5053754;28;20048;-75
2022/06/12 00:31:11;;;;;;;20.25;12.50;;;17.90;99.90;;;;;;5055210;28;20389;-76
2022/06/12 00:33:39;;;;;;;16.45;12.70;;;17.90;99.90;;;;;;5055531;28;20080;-75
2022/06/12 00:36:07;;;;;;;17.52;12.85;;;17.90;99.90;;;;;;5054213;28;20091;-76
2022/06/12 00:38:34;;;;;;;21.23;13.43;;;18.00;99.90;;;;;;5063545;28;20185;-75
2022/06/12 00:41:02;;;;;;;16.40;12.73;;;18.00;99.90;;;;;;5068381;28;20545;-75
2022/06/12 00:43:31;;;;;;;17.27;12.38;;;18.00;99.90;;;;;;5055455;28;20091;-75
2022/06/12 00:46:03;;;;;;;18.13;12.02;;;17.90;99.90;;;;;;5055387;28;20123;-75
2022/06/12 00:48:33;;;;;;;16.50;12.25;;;17.90;99.90;;;;;;5054186;28;20098;-76
2022/06/12 00:51:03;;;;;;;17.05;11.85;;;17.90;99.90;;;;;;5055249;28;20392;-76
2022/06/12 00:53:35;;;;;;;16.98;11.90;;;17.90;99.90;;;;;;5053614;28;20120;-77
2022/06/12 00:56:08;;;;;;;17.67;11.57;;;17.90;99.90;;;;;;5088669;28;20045;-75
2022/06/12 00:58:39;;;;;;;19.42;11.60;;;17.80;99.90;;;;;;5054779;28;20077;-75
2022/06/12 01:01:13;;;;;;;15.52;11.60;;;17.70;99.90;;;;;;5055180;28;20095;-75
2022/06/12 01:06:36;;;;;;;17.58;11.68;;;17.50;99.90;;;;;;5053794;28;20124;-75
2022/06/12 01:09:07;;;;;;;20.17;12.98;;;17.40;99.90;;;;;;5055555;28;20419;-75
2022/06/12 01:11:36;;;;;;;21.63;12.88;;;17.50;99.90;;;;;;5055213;28;20466;-75
2022/06/12 01:14:05;;;;;;;23.23;12.90;;;17.40;99.90;;;;;;5055401;28;20064;-75
2022/06/12 01:16:38;;;;;;;19.80;11.75;;;17.40;99.90;;;;;;5053774;28;20073;-75
2022/06/12 01:19:08;;;;;;;16.38;12.20;;;17.30;99.90;;;;;;5056336;28;20052;-75
2022/06/12 01:22:09;;;;;;;19.25;12.68;;;17.30;99.90;;;;;;5057261;28;20049;-75
2022/06/12 01:25:08;;;;;;;15.02;13.23;;;17.40;99.90;;;;;;5061265;28;20047;-76
2022/06/12 01:28:02;;;;;;;16.00;13.10;;;17.30;99.90;;;;;;5063805;28;20063;-75
2022/06/12 01:30:38;;;;;;;14.75;11.57;;;17.30;99.90;;;;;;5046428;28;20092;-75
2022/06/12 01:33:12;;;;;;;12.98;11.32;;;17.20;99.90;;;;;;5054732;28;20044;-76
2022/06/12 01:35:46;;;;;;;17.08;11.98;;;17.20;99.90;;;;;;5072998;28;20032;-75
2022/06/12 01:38:21;;;;;;;22.23;12.07;;;17.10;99.90;;;;;;5078567;28;20123;-75
2022/06/12 01:40:56;;;;;;;17.13;11.77;;;17.10;99.90;;;;;;5077015;28;20029;-75
2022/06/12 01:43:44;;;;;;;13.95;10.07;;;17.20;99.90;;;;;;5076606;28;20049;-75
2022/06/12 01:46:19;;;;;;;14.27;11.02;;;17.10;99.90;;;;;;5075341;28;20043;-75
2022/06/12 01:48:55;;;;;;;16.73;11.38;;;17.10;99.90;;;;;;5071384;28;20049;-75
2022/06/12 01:51:32;;;;;;;13.88;9.90;;;17.10;99.90;;;;;;5052953;28;20056;-76
2022/06/12 01:54:07;;;;;;;14.48;10.20;;;17.00;99.90;;;;;;5053882;28;20533;-74
2022/06/12 01:56:40;;;;;;;11.67;9.43;;;17.00;99.90;;;;;;5054153;28;20090;-74
2022/06/12 01:59:16;;;;;;;13.75;9.32;;;16.90;99.90;;;;;;5052954;28;20585;-75
2022/06/12 02:01:52;;;;;;;16.10;8.20;;;16.90;99.90;;;;;;5054196;28;20041;-74
2022/06/12 02:04:25;;;;;;;17.00;8.50;;;16.80;99.90;;;;;;5053539;28;20045;-75
2022/06/12 02:06:58;;;;;;;15.40;8.45;;;16.70;99.90;;;;;;5052211;28;20057;-75
2022/06/12 02:09:30;;;;;;;14.48;9.13;;;16.70;99.90;;;;;;5054084;28;20102;-75
2022/06/12 02:14:51;;;;;;;19.27;10.23;;;16.60;99.90;;;;;;5053196;28;20041;-75
2022/06/12 02:17:28;;;;;;;18.33;9.40;;;16.50;99.90;;;;;;5054333;28;20044;-76
2022/06/12 02:19:55;;;;;;;18.52;11.27;;;16.50;99.90;;;;;;5054042;28;20045;-76
2022/06/12 02:22:25;;;;;;;14.20;10.57;;;16.50;99.90;;;;;;5053281;28;20411;-75
2022/06/12 02:24:59;;;;;;;12.80;9.65;;;16.40;99.90;;;;;;5053003;28;20045;-75
2022/06/12 02:27:32;;;;;;;16.23;10.00;;;16.40;99.90;;;;;;5054129;28;20533;-75
2022/06/12 02:30:06;;;;;;;13.25;9.48;;;16.40;99.90;;;;;;5052949;28;20561;-75
2022/06/12 02:32:39;;;;;;;11.30;9.73;;;16.30;99.90;;;;;;5054837;28;20041;-75
2022/06/12 02:35:11;;;;;;;16.88;9.77;;;16.30;99.90;;;;;;5056941;28;20083;-75
2022/06/12 02:37:43;;;;;;;14.70;10.25;;;16.30;99.90;;;;;;5056053;28;20103;-75
2022/06/12 02:40:18;;;;;;;16.27;10.60;;;16.30;99.90;;;;;;5053010;28;20110;-75
2022/06/12 02:42:49;;;;;;;16.17;9.55;;;16.20;99.90;;;;;;5052432;28;20045;-75
2022/06/12 02:45:21;;;;;;;18.00;10.20;;;16.20;99.90;;;;;;5053059;28;20476;-75
2022/06/12 02:47:51;;;;;;;19.90;10.50;;;16.10;99.90;;;;;;5053114;28;20095;-76
2022/06/12 02:50:22;;;;;;;16.23;11.75;;;16.00;99.90;;;;;;5052285;28;20037;-75
2022/06/12 02:52:58;;;;;;;17.33;11.48;;;16.00;99.90;;;;;;5053912;28;20062;-76
2022/06/12 02:55:35;;;;;;;14.02;11.02;;;15.90;99.90;;;;;;5053900;28;20443;-76
2022/06/12 02:58:12;;;;;;;17.88;11.90;;;15.80;99.90;;;;;;5053590;28;20041;-75
2022/06/12 03:00:46;;;;;;;15.88;11.20;;;15.80;99.90;;;;;;5052431;28;20041;-75
2022/06/12 03:03:25;;;;;;;21.17;11.55;;;15.80;99.90;;;;;;5052225;28;20095;-75
2022/06/12 03:05:57;;;;;;;15.40;10.13;;;15.80;99.90;;;;;;5053995;28;20490;-75
2022/06/12 03:08:29;;;;;;;18.45;10.88;;;15.80;99.90;;;;;;5052702;28;20052;-75
2022/06/12 03:11:00;;;;;;;16.00;10.65;;;15.80;99.90;;;;;;5053446;28;20045;-74
2022/06/12 03:13:30;;;;;;;16.30;9.82;;;15.70;99.90;;;;;;5053494;28;20072;-76
2022/06/12 03:16:00;;;;;;;16.77;10.02;;;15.70;99.90;;;;;;5054846;28;20041;-76
2022/06/12 03:18:32;;;;;;;13.43;9.93;;;15.70;99.90;;;;;;5087060;28;20384;-75
2022/06/12 03:21:10;;;;;;;11.60;8.45;;;15.70;99.90;;;;;;5053879;28;20076;-75
2022/06/12 03:23:48;;;;;;;10.57;7.28;;;15.70;99.90;;;;;;5053260;28;20053;-76
2022/06/12 03:26:21;;;;;;;12.02;6.93;;;15.60;99.90;;;;;;5055219;28;20052;-75
2022/06/12 03:28:54;;;;;;;11.23;6.70;;;15.60;99.90;;;;;;5054391;28;20044;-75
2022/06/12 03:31:29;;;;;;;12.98;6.28;;;15.60;99.90;;;;;;5053449;28;20040;-75
2022/06/12 03:34:05;;;;;;;11.23;7.43;;;15.50;99.90;;;;;;5053076;28;20451;-75
2022/06/12 03:36:38;;;;;;;12.30;7.55;;;15.60;99.90;;;;;;5050665;28;20047;-75
2022/06/12 03:39:12;;;;;;;11.93;7.65;;;15.60;99.90;;;;;;5051217;28;20484;-75
2022/06/12 03:41:52;;;;;;;14.68;7.45;;;15.70;99.90;;;;;;5052864;28;20040;-75
2022/06/12 03:44:29;;;;;;;14.02;7.57;;;15.80;99.90;;;;;;5050900;28;20053;-75
2022/06/12 03:47:04;;;;;;;13.90;7.55;;;15.80;99.90;;;;;;5056057;28;20033;-75
2022/06/12 03:49:38;;;;;;;11.85;6.32;;;15.90;99.90;;;;;;5049200;28;20048;-75
2022/06/12 03:52:14;;;;;;;9.30;5.90;;;16.00;99.90;;;;;;5056552;28;20041;-74
2022/06/12 03:54:48;;;;;;;9.60;6.30;;;16.00;99.90;;;;;;5057018;28;20052;-75
2022/06/12 04:00:10;;;;;;;10.27;5.90;;;16.20;99.90;;;;;;5051289;28;20408;-74
2022/06/12 04:02:41;;;;;;;10.60;5.70;;;16.30;99.90;;;;;;5059013;28;20051;-75
2022/06/12 04:05:13;;;;;;;11.68;6.30;;;16.30;99.90;;;;;;5059364;28;20097;-75
2022/06/12 04:07:45;;;;;;;8.55;6.00;;;16.40;99.90;;;;;;5056637;28;20488;-75
2022/06/12 04:10:18;;;;;;;8.90;5.50;;;16.50;99.90;;;;;;5055393;28;20048;-74
2022/06/12 04:12:46;;;;;;;12.20;6.50;;;16.60;99.90;;;;;;5055808;28;20044;-75
2022/06/12 04:15:17;;;;;;;10.77;5.88;;;16.60;99.90;;;;;;5054906;28;20044;-74
2022/06/12 04:17:45;;;;;;;9.65;5.32;;;16.70;99.90;;;;;;5056511;28;20099;-75
2022/06/12 04:20:20;;;;;;;11.18;5.75;;;16.80;99.90;;;;;;5060359;28;20052;-75
2022/06/12 04:22:53;;;;;;;13.50;6.30;;;16.80;99.90;;;;;;5058142;28;20510;-75
2022/06/12 04:25:29;;;;;;;11.88;6.75;;;16.70;99.90;;;;;;5060879;28;20048;-75
2022/06/12 04:27:56;;;;;;;;;;;16.70;99.90;;;;;;5058124;28;20499;-75
2022/06/12 04:30:27;;;;;;;10.32;6.22;;;16.70;99.90;;;;;;5057037;28;19964;-74
2022/06/12 04:33:20;;;;;;;11.85;6.00;;;16.70;99.90;;;;;;5065503;28;20094;-74
2022/06/12 04:35:52;;;;;;;11.45;5.82;;;16.70;99.90;;;;;;5068298;28;20064;-76
2022/06/12 04:38:20;;;;;;;12.48;6.10;;;16.80;99.90;;;;;;5057421;28;20041;-74
2022/06/12 04:40:48;;;;;;;11.32;6.43;;;17.10;99.90;;;;;;5056448;28;20037;-75
2022/06/12 04:43:16;;;;;;;13.82;6.90;;;17.30;99.90;;;;;;5055961;28;20041;-75
2022/06/12 04:45:44;;;;;;;14.65;7.15;;;17.50;99.90;;;;;;5055727;28;20049;-74
2022/06/12 04:48:15;;;;;;;10.52;6.72;;;17.70;99.90;;;;;;5054040;28;20053;-74
2022/06/12 04:50:43;;;;;;;24.92;11.18;;;18.00;99.90;;;;;;5054086;28;20045;-75
2022/06/12 04:53:11;;;;;;;11.55;6.47;;;18.10;99.90;;;;;;5054085;28;20458;-76
2022/06/12 04:55:39;;;;;;;13.65;6.03;;;18.20;99.90;;;;;;5057487;28;20044;-76
2022/06/12 04:58:07;;;;;;;11.32;5.90;;;18.20;99.90;;;;;;5055112;28;20041;-75
2022/06/12 05:00:34;;;;;;;9.25;5.10;;;18.20;99.90;;;;;;5054319;28;20140;-75
2022/06/12 05:03:02;;;;;;;11.35;5.03;;;18.40;99.90;;;;;;5055162;28;20163;-75
2022/06/12 05:05:31;;;;;;;10.27;5.28;;;18.70;99.90;;;;;;5056429;28;20411;-75
2022/06/12 05:07:58;;;;;;;10.25;4.53;;;19.00;99.90;;;;;;5056200;28;20037;-74
2022/06/12 05:10:28;;;;;;;10.52;5.10;;;19.00;99.90;;;;;;5055593;28;20107;-76
2022/06/12 05:12:55;;;;;;;9.07;4.80;;;19.10;99.90;;;;;;5056374;28;20045;-75
2022/06/12 05:15:24;;;;;;;9.43;5.82;;;19.00;99.90;;;;;;5063642;28;20055;-76
2022/06/12 05:17:52;;;;;;;10.07;5.18;;;19.00;99.90;;;;;;5060247;28;20041;-76
2022/06/12 05:20:23;;;;;;;16.75;6.15;;;19.00;99.90;;;;;;5057510;28;20044;-77
2022/06/12 05:22:51;;;;;;;13.63;6.15;;;19.00;99.90;;;;;;5066635;28;20079;-77
2022/06/12 05:25:19;;;;;;;11.48;6.20;;;19.10;99.90;;;;;;5063450;28;20130;-74
2022/06/12 05:27:49;;;;;;;16.65;6.32;;;19.20;99.90;;;;;;5076626;28;20037;-76
2022/06/12 05:30:19;;;;;;;13.73;7.93;;;19.50;99.90;;;;;;5070486;28;20037;-75
2022/06/12 05:32:48;;;;;;;16.08;8.98;;;19.80;99.90;;;;;;5053975;28;20044;-76
2022/06/12 05:35:18;;;;;;;10.38;7.63;;;20.20;99.90;;;;;;5046403;28;20037;-77
2022/06/12 05:37:45;;;;;;;15.68;9.05;;;20.60;99.90;;;;;;5051882;28;20052;-75
2022/06/12 05:40:18;;;;;;;12.38;6.90;;;20.80;99.90;;;;;;5054831;28;20124;-76
2022/06/12 05:42:47;;;;;;;11.52;7.30;;;21.20;99.90;;;;;;5055145;28;20427;-74
2022/06/12 05:45:17;;;;;;;9.02;5.78;;;21.40;99.90;;;;;;5055077;28;20103;-76
2022/06/12 05:47:47;;;;;;;7.22;4.63;;;22.00;99.90;;;;;;5055576;28;20041;-76
2022/06/12 05:50:14;;;;;;;9.50;5.03;;;22.60;99.90;;;;;;5055518;28;20499;-76
2022/06/12 05:52:42;;;;;;;11.77;4.13;;;23.50;99.90;;;;;;5055024;28;20033;-75
2022/06/12 05:55:10;;;;;;;8.48;4.07;;;24.50;99.90;;;;;;5055430;28;20044;-75
2022/06/12 05:57:38;;;;;;;11.30;6.03;;;25.40;99.90;;;;;;5055791;28;20041;-77
2022/06/12 06:00:11;;;;;;;10.30;4.60;;;25.20;99.90;;;;;;5056753;28;20037;-75
2022/06/12 06:02:39;;;;;;;7.97;4.30;;;24.60;99.90;;;;;;5056370;28;20512;-77
2022/06/12 06:05:07;;;;;;;12.48;5.80;;;24.10;99.90;;;;;;5054520;28;20041;-77
2022/06/12 06:07:35;;;;;;;9.60;4.03;;;24.10;99.90;;;;;;5055292;28;20041;-75
2022/06/12 06:10:03;;;;;;;7.55;3.10;;;24.10;99.90;;;;;;5085149;28;20049;-76
2022/06/12 06:12:31;;;;;;;8.27;4.32;;;23.90;99.90;;;;;;5052523;28;20045;-76
2022/06/12 06:14:59;;;;;;;8.68;4.00;;;24.00;99.90;;;;;;5054480;28;20075;-77
2022/06/12 06:17:27;;;;;;;6.13;3.15;;;24.40;99.90;;;;;;5053503;28;20045;-76
2022/06/12 06:19:55;;;;;;;7.07;3.63;;;24.70;99.90;;;;;;5053075;28;20045;-76
2022/06/12 06:22:22;;;;;;;9.65;2.70;;;25.20;99.90;;;;;;5053677;28;20059;-75
2022/06/12 06:24:49;;;;;;;6.68;3.72;;;25.20;99.90;;;;;;5053005;28;20073;-74
2022/06/12 06:27:17;;;;;;;7.40;3.00;;;25.10;99.90;;;;;;5054474;28;20064;-75
2022/06/12 06:29:45;;;;;;;5.18;3.53;;;24.80;99.90;;;;;;5049339;28;20403;-76
2022/06/12 06:32:12;;;;;;;4.63;3.03;;;24.90;99.90;;;;;;5067704;28;20620;-75
2022/06/12 06:34:41;;;;;;;7.47;2.88;;;24.90;99.90;;;;;;5056617;28;20048;-75
2022/06/12 06:37:11;;;;;;;4.57;3.40;;;24.60;99.90;;;;;;5054976;28;20041;-75
2022/06/12 06:39:40;;;;;;;4.53;3.20;;;24.60;99.90;;;;;;5054040;28;20500;-75
2022/06/12 06:42:08;;;;;;;5.07;2.65;;;24.60;99.90;;;;;;5055008;28;20045;-75
2022/06/12 06:47:20;;;;;;;8.98;3.45;;;24.30;99.90;;;;;;5054727;28;20037;-76
2022/06/12 06:49:49;;;;;;;8.93;3.33;;;24.20;99.90;;;;;;5053237;28;20048;-77
2022/06/12 06:52:16;;;;;;;5.82;3.65;;;24.50;99.90;;;;;;5052793;28;20060;-78
2022/06/12 06:54:44;;;;;;;7.60;4.13;;;24.80;99.90;;;;;;5056009;28;20045;-76
2022/06/12 06:57:11;;;;;;;8.85;5.28;;;24.90;99.90;;;;;;5069492;28;20114;-76
2022/06/12 06:59:39;;;;;;;7.93;4.80;;;24.80;99.90;;;;;;5063667;28;20041;-76
2022/06/12 07:02:07;;;;;;;10.82;5.53;;;24.80;99.90;;;;;;5053119;28;20056;-75
2022/06/12 07:04:35;;;;;;;8.05;4.55;;;24.70;99.90;;;;;;5051875;28;20060;-76
2022/06/12 07:07:04;;;;;;;7.57;4.53;;;24.90;99.90;;;;;;5053120;28;20087;-76
2022/06/12 07:09:31;;;;;;;6.28;4.70;;;25.10;99.90;;;;;;5054935;28;20052;-76
2022/06/12 07:11:59;;;;;;;5.95;4.35;;;25.30;99.90;;;;;;5059044;28;20036;-75
2022/06/12 07:14:26;;;;;;;5.78;4.28;;;25.40;99.90;;;;;;5066149;28;20037;-77
2022/06/12 07:16:54;;;;;;;7.22;4.70;;;25.60;99.90;;;;;;5074189;28;20131;-75
2022/06/12 07:19:22;;;;;;;7.25;6.38;;;25.70;99.90;;;;;;5071967;28;20071;-76
2022/06/12 07:21:49;;;;;;;9.75;6.00;;;25.80;99.90;;;;;;5077814;28;20045;-76
2022/06/12 07:24:19;;;;;;;7.15;4.38;;;25.50;99.90;;;;;;5073273;28;20067;-74
2022/06/12 07:26:48;;;;;;;8.63;4.82;;;25.70;99.90;;;;;;5069009;28;20041;-78
2022/06/12 07:29:17;;;;;;;7.60;4.50;;;25.90;99.90;;;;;;5064682;28;20473;-77
2022/06/12 07:31:45;;;;;;;6.57;4.60;;;26.10;99.90;;;;;;5057320;28;20056;-76
2022/06/12 07:34:13;;;;;;;9.05;4.00;;;26.50;99.90;;;;;;5056061;28;20049;-76
2022/06/12 07:36:42;;;;;;;6.22;3.85;;;26.70;99.90;;;;;;5055985;28;20084;-76
2022/06/12 07:39:12;;;;;;;7.57;3.83;;;26.60;99.90;;;;;;5055912;28;20049;-76
2022/06/12 07:41:41;;;;;;;7.85;3.78;;;26.50;99.90;;;;;;5056173;28;20049;-76
2022/06/12 07:44:09;;;;;;;6.35;3.80;;;26.60;99.90;;;;;;5056194;28;20106;-76
2022/06/12 07:46:36;;;;;;;8.23;4.07;;;26.90;99.90;;;;;;5057362;28;20076;-76
2022/06/12 07:49:04;;;;;;;8.07;4.18;;;26.60;99.90;;;;;;5057268;28;20044;-75
2022/06/12 07:51:31;;;;;;;8.20;3.70;;;26.60;99.90;;;;;;5057740;28;20037;-76
2022/06/12 07:53:58;;;;;;;5.50;3.95;;;26.60;99.90;;;;;;5055153;28;20051;-77
2022/06/12 07:56:26;;;;;;;7.43;4.50;;;26.50;99.90;;;;;;5055613;28;20569;-75
2022/06/12 07:58:55;;;;;;;10.68;5.88;;;26.50;99.90;;;;;;5055568;28;20045;-75
2022/06/12 08:01:26;;;;;;;12.48;7.38;;;26.40;99.90;;;;;;5056928;28;20051;-77
2022/06/12 08:03:54;;;;;;;8.50;6.90;;;26.50;99.90;;;;;;5057419;28;20075;-75
2022/06/12 08:06:21;;;;;;;9.32;5.65;;;26.60;99.90;;;;;;5057331;28;20041;-75
2022/06/12 08:08:49;;;;;;;11.02;5.35;;;26.60;99.90;;;;;;5057256;28;20106;-75
2022/06/12 08:11:16;;;;;;;7.43;4.20;;;26.70;99.90;;;;;;5057500;28;20051;-77
2022/06/12 08:13:43;;;;;;;6.75;4.93;;;26.60;99.90;;;;;;5055515;28;20045;-76
2022/06/12 08:16:12;;;;;;;7.82;4.88;;;26.70;99.90;;;;;;5055904;28;20049;-77
2022/06/12 08:18:39;;;;;;;9.15;4.55;;;26.80;99.90;;;;;;5057350;28;20068;-77
2022/06/12 08:21:10;;;;;;;7.53;4.32;;;26.90;99.90;;;;;;5057362;28;20041;-76
2022/06/12 08:23:40;;;;;;;13.20;4.50;;;26.80;99.90;;;;;;5056505;28;20123;-75
2022/06/12 08:26:11;;;;;;;6.65;4.05;;;26.70;99.90;;;;;;5057027;28;20041;-76
2022/06/12 08:28:44;;;;;;;5.72;4.55;;;26.80;99.90;;;;;;5057349;28;20095;-76
2022/06/12 08:31:16;;;;;;;10.57;4.50;;;26.80;99.90;;;;;;5058215;28;20097;-76
2022/06/12 08:33:46;;;;;;;8.27;4.30;;;27.00;99.90;;;;;;5054000;28;20110;-76
2022/06/12 08:36:15;;;;;;;6.30;4.47;;;27.00;99.90;;;;;;5056620;28;20094;-76
2022/06/12 08:38:43;;;;;;;7.18;4.78;;;27.00;99.90;;;;;;5060630;28;20059;-76
2022/06/12 08:41:16;;;;;;;11.80;5.80;;;27.20;99.90;;;;;;5074316;28;20080;-76
2022/06/12 08:43:49;;;;;;;8.73;5.30;;;27.40;99.90;;;;;;5074844;28;20059;-77
2022/06/12 08:46:24;;;;;;;5.00;4.05;;;27.50;99.90;;;;;;5058614;28;20052;-76
2022/06/12 08:48:56;;;;;;;8.48;4.45;;;27.50;99.90;;;;;;5055701;28;20041;-77
2022/06/12 08:51:28;;;;;;;7.78;4.95;;;27.60;99.90;;;;;;5057356;28;20087;-76
2022/06/12 08:54:00;;;;;;;8.25;5.10;;;28.10;99.90;;;;;;5056904;28;20068;-76
2022/06/12 08:56:32;;;;;;;7.30;5.03;;;28.30;99.90;;;;;;5057874;28;20500;-76
2022/06/12 08:59:09;;;;;;;14.05;7.50;;;28.00;99.90;;;;;;5057538;28;20045;-76
2022/06/12 09:01:41;;;;;;;8.50;5.78;;;27.70;99.90;;;;;;5057275;28;20091;-76
2022/06/12 09:04:12;;;;;;;23.35;14.55;;;27.70;99.90;;;;;;5057156;28;20049;-77
2022/06/12 09:06:45;;;;;;;10.65;6.22;;;27.50;99.90;;;;;;5056882;28;20112;-78
2022/06/12 09:09:21;;;;;;;11.02;7.13;;;27.30;99.90;;;;;;5054979;28;20049;-77
2022/06/12 09:11:51;;;;;;;9.60;5.85;;;27.60;99.90;;;;;;5056276;28;20071;-78
2022/06/12 09:14:32;;;;;;;12.85;8.30;;;27.70;99.90;;;;;;5054423;28;20072;-77
2022/06/12 09:17:15;;;;;;;9.25;5.88;;;27.60;99.90;;;;;;5055867;28;20100;-78
2022/06/12 09:19:50;;;;;;;7.22;5.15;;;27.80;99.90;;;;;;5055738;28;20060;-78
2022/06/12 09:22:26;;;;;;;6.57;4.57;;;27.90;99.90;;;;;;5056780;28;20059;-77
2022/06/12 09:25:01;;;;;;;7.30;5.57;;;28.10;99.90;;;;;;5058632;28;20136;-77
2022/06/12 09:27:39;;;;;;;6.50;4.10;;;28.30;99.90;;;;;;5056937;28;20062;-78
2022/06/12 09:30:11;;;;;;;7.25;5.72;;;28.20;99.90;;;;;;5056708;28;20075;-76
2022/06/12 09:32:55;;;;;;;9.90;5.47;;;28.20;99.90;;;;;;5055792;28;20067;-78
2022/06/12 09:35:41;;;;;;;12.00;6.65;;;28.20;99.90;;;;;;5055728;28;20059;-78
2022/06/12 09:38:23;;;;;;;6.30;4.63;;;28.20;99.90;;;;;;5058184;28;20646;-77
2022/06/12 09:41:12;;;;;;;9.73;6.32;;;27.90;99.90;;;;;;5066210;28;20048;-78
2022/06/12 09:43:46;;;;;;;8.38;5.18;;;27.80;99.90;;;;;;5063739;28;20047;-78
2022/06/12 09:46:34;;;;;;;8.35;5.03;;;27.60;99.90;;;;;;5062336;28;20048;-80
2022/06/12 09:49:18;;;;;;;7.32;4.47;;;27.70;99.90;;;;;;5059401;28;20041;-77
2022/06/12 09:52:00;;;;;;;10.48;5.57;;;27.40;99.90;;;;;;5057469;28;20067;-76
2022/06/12 09:54:49;;;;;;;15.63;6.18;;;27.20;99.90;;;;;;5055261;28;20048;-77
2022/06/12 09:57:27;;;;;;;7.68;4.65;;;27.50;99.90;;;;;;5058090;28;20049;-78
2022/06/12 10:00:00;;;;;;;9.88;4.25;;;27.80;99.90;;;;;;5056664;28;20044;-79
2022/06/12 10:02:35;;;;;;;8.15;5.00;;;27.40;99.90;;;;;;5057716;28;20041;-76
2022/06/12 10:05:10;;;;;;;9.45;6.15;;;27.00;99.90;;;;;;5058124;28;20045;-77
2022/06/12 10:07:44;;;;;;;7.53;4.70;;;27.20;99.90;;;;;;5055805;28;20061;-77
2022/06/12 10:10:20;;;;;;;169.32;28.23;;;27.10;99.90;;;;;;5055073;28;20431;-77
2022/06/12 10:12:52;;;;;;;12.38;7.90;;;27.00;99.90;;;;;;5056022;28;20158;-76
2022/06/12 10:15:24;;;;;;;9.43;6.15;;;27.10;99.90;;;;;;5055979;28;20072;-76
2022/06/12 10:17:57;;;;;;;6.15;4.75;;;27.00;99.90;;;;;;5056838;28;20033;-77
2022/06/12 10:20:32;;;;;;;8.85;5.47;;;26.80;99.90;;;;;;5061405;28;20532;-78
2022/06/12 10:23:00;;;;;;;8.93;5.33;;;26.50;99.90;;;;;;5064493;28;20048;-79
2022/06/12 10:25:47;;;;;;;8.75;4.95;;;26.60;99.90;;;;;;5067455;28;20400;-78
2022/06/12 10:28:28;;;;;;;5.38;4.13;;;26.50;99.90;;;;;;5064853;28;20048;-77
2022/06/12 10:31:04;;;;;;;7.82;4.40;;;26.50;99.90;;;;;;5065332;28;20396;-76
2022/06/12 10:33:35;;;;;;;12.73;8.73;;;26.80;99.90;;;;;;5061290;28;20049;-76
2022/06/12 10:36:05;;;;;;;8.63;5.10;;;27.10;99.90;;;;;;5065881;28;20076;-77
2022/06/12 10:38:37;;;;;;;7.68;4.85;;;27.00;99.90;;;;;;5067305;28;20061;-76
2022/06/12 10:41:08;;;;;;;5.43;4.40;;;27.00;99.90;;;;;;5066569;28;20056;-77
2022/06/12 10:43:39;;;;;;;4.80;3.95;;;26.90;99.90;;;;;;5066520;28;20044;-75
2022/06/12 10:46:17;;;;;;;8.30;4.47;;;27.10;99.90;;;;;;5063150;28;20099;-77
2022/06/12 10:48:57;;;;;;;6.78;4.80;;;27.30;99.90;;;;;;5070924;28;20067;-77
2022/06/12 10:51:30;;;;;;;7.55;4.38;;;27.30;99.90;;;;;;5073224;28;20144;-76
2022/06/12 10:54:00;;;;;;;8.45;5.68;;;27.20;99.90;;;;;;5067889;28;20119;-77
2022/06/12 10:56:32;;;;;;;8.55;7.07;;;27.30;99.90;;;;;;5059944;28;20045;-78
2022/06/12 10:59:22;;;;;;;7.25;5.40;;;27.30;99.90;;;;;;5069576;28;20037;-77
2022/06/12 11:02:02;;;;;;;9.57;5.30;;;27.20;99.90;;;;;;5059323;28;20048;-76
2022/06/12 11:04:40;;;;;;;15.50;13.25;;;27.40;99.90;;;;;;5060071;28;20065;-77
2022/06/12 11:07:19;;;;;;;14.68;12.80;;;27.90;99.90;;;;;;5061511;28;20049;-78
2022/06/12 11:10:08;;;;;;;16.55;12.98;;;28.00;99.90;;;;;;5060882;28;20091;-77
2022/06/12 11:12:50;;;;;;;9.20;4.57;;;28.00;99.90;;;;;;5062273;28;20455;-76
2022/06/12 11:15:35;;;;;;;13.60;8.23;;;28.10;99.90;;;;;;5059357;28;20049;-76
2022/06/12 11:18:17;;;;;;;9.55;5.72;;;28.10;99.90;;;;;;5059379;28;20041;-76
2022/06/12 11:20:54;;;;;;;6.85;4.70;;;28.10;99.90;;;;;;5057502;28;20139;-79
2022/06/12 11:23:51;;;;;;;6.60;4.80;;;28.30;99.90;;;;;;5058114;28;20144;-77
2022/06/12 11:26:31;;;;;;;7.65;4.05;;;28.20;99.90;;;;;;5058925;28;20072;-77
2022/06/12 11:29:17;;;;;;;7.30;4.40;;;27.80;99.90;;;;;;5059327;28;20381;-76
2022/06/12 11:31:56;;;;;;;6.82;4.60;;;27.50;99.90;;;;;;5063086;28;20044;-76
2022/06/12 11:34:35;;;;;;;7.60;4.82;;;27.50;99.90;;;;;;5066342;28;20045;-77
2022/06/12 11:37:18;;;;;;;7.55;5.85;;;27.80;99.90;;;;;;5065329;28;20049;-77
2022/06/12 11:39:59;;;;;;;6.88;5.30;;;28.00;99.90;;;;;;5070650;28;20041;-76
2022/06/12 11:42:41;;;;;;;10.50;8.45;;;27.90;99.90;;;;;;5073179;28;20064;-77
2022/06/12 11:45:20;;;;;;;7.40;5.53;;;28.00;99.90;;;;;;5068193;28;20045;-77
2022/06/12 11:48:03;;;;;;;8.65;4.53;;;28.20;99.90;;;;;;5072106;28;20075;-78
2022/06/12 11:50:36;;;;;;;7.57;4.57;;;28.30;99.90;;;;;;5069766;28;20049;-76
2022/06/12 11:53:18;;;;;;;7.15;4.10;;;28.60;99.90;;;;;;5057209;28;20148;-78
2022/06/12 11:55:53;;;;;;;5.72;3.80;;;28.60;99.90;;;;;;5057796;28;20512;-76
2022/06/12 11:58:41;;;;;;;;;;;28.10;99.90;;;;;;5056702;28;20049;-77
2022/06/12 12:01:16;;;;;;;6.00;4.18;;;27.60;99.90;;;;;;5074039;28;19935;-75
2022/06/12 12:04:12;;;;;;;6.90;4.03;;;27.80;99.90;;;;;;5065458;28;20393;-78
2022/06/12 12:06:55;;;;;;;6.80;4.10;;;27.60;99.90;;;;;;5055244;28;20060;-77
2022/06/12 12:09:34;;;;;;;5.95;4.00;;;27.80;99.90;;;;;;5057380;28;20076;-76
2022/06/12 12:12:09;;;;;;;5.50;4.20;;;28.00;99.90;;;;;;5055881;28;20397;-76
2022/06/12 12:14:40;;;;;;;7.65;4.10;;;27.30;99.90;;;;;;5057196;28;20045;-77
2022/06/12 12:17:11;;;;;;;5.72;4.28;;;27.50;99.90;;;;;;5056831;28;20037;-76
2022/06/12 12:19:45;;;;;;;8.27;4.50;;;27.90;99.90;;;;;;5057712;28;20037;-76
2022/06/12 12:22:19;;;;;;;8.45;5.00;;;27.90;99.90;;;;;;5057098;28;20057;-76
2022/06/12 12:24:50;;;;;;;7.30;4.25;;;28.10;99.90;;;;;;5057405;28;20536;-76
2022/06/12 12:27:28;;;;;;;5.68;4.00;;;28.30;99.90;;;;;;5056768;28;20048;-75
2022/06/12 12:29:57;;;;;;;5.22;4.30;;;28.10;99.90;;;;;;5056820;28;20099;-76
2022/06/12 12:32:24;;;;;;;5.65;4.30;;;28.20;99.90;;;;;;5056921;28;20049;-75
2022/06/12 12:34:55;;;;;;;7.22;4.20;;;28.50;99.90;;;;;;5055661;28;20049;-79
2022/06/12 12:43:15;;;;;;;5.97;4.22;;;28.00;99.90;;;;;;5059971;28;20435;-78
2022/06/12 12:45:42;;;;;;;9.05;5.03;;;27.30;99.90;;;;;;5058708;28;20037;-78
2022/06/12 12:48:12;;;;;;;7.65;4.70;;;27.30;99.90;;;;;;5055272;28;20130;-76
2022/06/12 12:50:46;;;;;;;8.30;6.55;;;27.40;99.90;;;;;;5056279;28;20100;-75
2022/06/12 12:53:27;;;;;;;5.88;4.53;;;27.60;99.90;;;;;;5056656;28;20038;-76
2022/06/12 12:56:03;;;;;;;5.63;5.00;;;27.70;99.90;;;;;;5056862;28;20064;-78
2022/06/12 12:58:34;;;;;;;9.55;6.43;;;28.00;99.90;;;;;;5061084;28;20045;-77
2022/06/12 13:01:06;;;;;;;5.85;4.60;;;28.00;99.90;;;;;;5062665;28;20052;-77
2022/06/12 13:03:40;;;;;;;8.48;7.18;;;27.80;99.90;;;;;;5058947;28;20550;-78
2022/06/12 13:06:20;;;;;;;6.13;4.45;;;27.80;99.90;;;;;;5055824;28;20385;-77
2022/06/12 13:09:04;;;;;;;6.72;4.93;;;27.90;99.90;;;;;;5054598;28;20040;-77
2022/06/12 13:11:44;;;;;;;6.68;5.40;;;28.00;99.90;;;;;;5055019;28;20060;-79
2022/06/12 13:14:28;;;;;;;5.38;4.47;;;27.90;99.90;;;;;;5055765;28;20045;-78
2022/06/12 13:17:19;;;;;;;8.13;5.88;;;27.80;99.90;;;;;;5054876;28;20079;-76
2022/06/12 13:20:28;;;;;;;6.10;4.70;;;28.10;99.90;;;;;;5072734;28;20086;-78
2022/06/12 13:23:05;;;;;;;6.35;4.20;;;27.80;99.90;;;;;;5057564;28;20140;-78
2022/06/12 13:25:38;;;;;;;8.13;5.00;;;27.70;99.90;;;;;;5060284;28;20045;-76
2022/06/12 13:28:06;;;;;;;4.95;4.38;;;27.90;99.90;;;;;;5056665;28;20090;-77